sensor_id;sensor_type;location;lat;lon;timestamp;P1;durP1;ratioP1;P2;durP2;ratioP2
9739;SDS011;4909;42.680;26.324;2022-07-03T00:01:28;4.23;;;1.67;;
9739;SDS011;4909;42.680;26.324;2022-07-03T00:03:55;4.43;;;1.73;;
9739;SDS011;4909;42.680;26.324;2022-07-03T00:06:23;2.27;;;1.20;;
9739;SDS011;4909;42.680;26.324;2022-07-03T00:08:51;3.00;;;1.30;;
9739;SDS011;4909;42.680;26.324;2022-07-03T00:11:18;5.43;;;1.87;;
9739;SDS011;4909;42.680;26.324;2022-07-03T00:13:46;3.80;;;1.53;;
9739;SDS011;4909;42.680;26.324;2022-07-03T00:16:13;4.07;;;1.63;;
9739;SDS011;4909;42.680;26.324;2022-07-03T00:18:40;3.77;;;1.37;;
9739;SDS011;4909;42.680;26.324;2022-07-03T00:21:07;4.37;;;1.67;;
9739;SDS011;4909;42.680;26.324;2022-07-03T00:23:39;4.63;;;1.63;;
9739;SDS011;4909;42.680;26.324;2022-07-03T00:26:09;4.93;;;1.67;;
9739;SDS011;4909;42.680;26.324;2022-07-03T00:28:39;5.27;;;1.90;;
9739;SDS011;4909;42.680;26.324;2022-07-03T00:31:07;5.20;;;1.83;;
9739;SDS011;4909;42.680;26.324;2022-07-03T00:33:37;3.37;;;1.37;;
9739;SDS011;4909;42.680;26.324;2022-07-03T00:36:04;3.87;;;1.47;;
9739;SDS011;4909;42.680;26.324;2022-07-03T00:38:32;3.73;;;1.50;;
9739;SDS011;4909;42.680;26.324;2022-07-03T00:41:01;5.70;;;2.03;;
9739;SDS011;4909;42.680;26.324;2022-07-03T00:43:29;4.47;;;1.60;;
9739;SDS011;4909;42.680;26.324;2022-07-03T00:46:02;4.40;;;1.87;;
9739;SDS011;4909;42.680;26.324;2022-07-03T00:48:33;4.83;;;1.93;;
9739;SDS011;4909;42.680;26.324;2022-07-03T00:51:03;3.90;;;1.50;;
9739;SDS011;4909;42.680;26.324;2022-07-03T00:53:33;3.50;;;1.43;;
9739;SDS011;4909;42.680;26.324;2022-07-03T00:56:04;4.50;;;1.63;;
9739;SDS011;4909;42.680;26.324;2022-07-03T00:58:32;4.10;;;1.60;;
9739;SDS011;4909;42.680;26.324;2022-07-03T01:01:00;4.87;;;1.73;;
9739;SDS011;4909;42.680;26.324;2022-07-03T01:03:28;3.90;;;1.53;;
9739;SDS011;4909;42.680;26.324;2022-07-03T01:06:01;2.83;;;1.27;;
9739;SDS011;4909;42.680;26.324;2022-07-03T01:08:34;2.90;;;1.40;;
9739;SDS011;4909;42.680;26.324;2022-07-03T01:11:07;3.40;;;1.43;;
9739;SDS011;4909;42.680;26.324;2022-07-03T01:13:43;4.80;;;1.73;;
9739;SDS011;4909;42.680;26.324;2022-07-03T01:16:17;2.87;;;1.30;;
9739;SDS011;4909;42.680;26.324;2022-07-03T01:18:51;3.53;;;1.40;;
9739;SDS011;4909;42.680;26.324;2022-07-03T01:21:22;4.67;;;1.60;;
9739;SDS011;4909;42.680;26.324;2022-07-03T01:24:07;4.50;;;1.67;;
9739;SDS011;4909;42.680;26.324;2022-07-03T01:27:07;3.57;;;1.40;;
9739;SDS011;4909;42.680;26.324;2022-07-03T01:29:41;3.60;;;1.43;;
9739;SDS011;4909;42.680;26.324;2022-07-03T01:32:17;5.30;;;1.73;;
9739;SDS011;4909;42.680;26.324;2022-07-03T01:34:51;2.33;;;1.13;;
9739;SDS011;4909;42.680;26.324;2022-07-03T01:37:20;3.50;;;1.40;;
9739;SDS011;4909;42.680;26.324;2022-07-03T01:39:51;3.80;;;1.57;;
9739;SDS011;4909;42.680;26.324;2022-07-03T01:42:21;4.03;;;1.47;;
9739;SDS011;4909;42.680;26.324;2022-07-03T01:44:49;3.47;;;1.40;;
9739;SDS011;4909;42.680;26.324;2022-07-03T01:47:18;2.77;;;1.30;;
9739;SDS011;4909;42.680;26.324;2022-07-03T01:49:45;4.63;;;1.67;;
9739;SDS011;4909;42.680;26.324;2022-07-03T01:52:14;4.27;;;1.60;;
9739;SDS011;4909;42.680;26.324;2022-07-03T01:54:42;5.17;;;1.83;;
9739;SDS011;4909;42.680;26.324;2022-07-03T01:57:11;3.13;;;1.30;;
9739;SDS011;4909;42.680;26.324;2022-07-03T01:59:39;2.97;;;1.30;;
9739;SDS011;4909;42.680;26.324;2022-07-03T02:02:09;3.53;;;1.40;;
9739;SDS011;4909;42.680;26.324;2022-07-03T02:04:48;4.53;;;1.63;;
9739;SDS011;4909;42.680;26.324;2022-07-03T02:07:25;3.53;;;1.40;;
9739;SDS011;4909;42.680;26.324;2022-07-03T02:10:02;3.20;;;1.30;;
9739;SDS011;4909;42.680;26.324;2022-07-03T02:12:33;3.50;;;1.40;;
9739;SDS011;4909;42.680;26.324;2022-07-03T02:15:08;3.73;;;1.40;;
9739;SDS011;4909;42.680;26.324;2022-07-03T02:17:36;4.73;;;1.67;;
9739;SDS011;4909;42.680;26.324;2022-07-03T02:20:05;5.10;;;1.80;;
9739;SDS011;4909;42.680;26.324;2022-07-03T02:22:34;4.23;;;1.53;;
9739;SDS011;4909;42.680;26.324;2022-07-03T02:25:03;4.63;;;1.67;;
9739;SDS011;4909;42.680;26.324;2022-07-03T02:27:32;4.37;;;1.63;;
9739;SDS011;4909;42.680;26.324;2022-07-03T02:30:10;3.03;;;1.30;;
9739;SDS011;4909;42.680;26.324;2022-07-03T02:32:39;3.13;;;1.40;;
9739;SDS011;4909;42.680;26.324;2022-07-03T02:35:11;3.93;;;1.57;;
9739;SDS011;4909;42.680;26.324;2022-07-03T02:37:39;4.13;;;1.57;;
9739;SDS011;4909;42.680;26.324;2022-07-03T02:40:14;3.20;;;1.33;;
9739;SDS011;4909;42.680;26.324;2022-07-03T02:42:48;2.83;;;1.27;;
9739;SDS011;4909;42.680;26.324;2022-07-03T02:45:32;4.53;;;1.70;;
9739;SDS011;4909;42.680;26.324;2022-07-03T02:48:08;3.77;;;1.43;;
9739;SDS011;4909;42.680;26.324;2022-07-03T02:50:43;4.00;;;1.60;;
9739;SDS011;4909;42.680;26.324;2022-07-03T02:53:15;2.60;;;1.33;;
9739;SDS011;4909;42.680;26.324;2022-07-03T02:55:51;3.60;;;1.57;;
9739;SDS011;4909;42.680;26.324;2022-07-03T02:58:34;3.30;;;1.33;;
9739;SDS011;4909;42.680;26.324;2022-07-03T03:01:13;3.33;;;1.40;;
9739;SDS011;4909;42.680;26.324;2022-07-03T03:03:49;2.70;;;1.23;;
9739;SDS011;4909;42.680;26.324;2022-07-03T03:06:28;5.27;;;1.93;;
9739;SDS011;4909;42.680;26.324;2022-07-03T03:08:59;2.73;;;1.23;;
9739;SDS011;4909;42.680;26.324;2022-07-03T03:11:32;4.27;;;1.70;;
9739;SDS011;4909;42.680;26.324;2022-07-03T03:14:08;5.47;;;1.90;;
9739;SDS011;4909;42.680;26.324;2022-07-03T03:16:40;4.33;;;1.67;;
9739;SDS011;4909;42.680;26.324;2022-07-03T03:19:12;3.30;;;1.37;;
9739;SDS011;4909;42.680;26.324;2022-07-03T03:21:42;3.80;;;1.50;;
9739;SDS011;4909;42.680;26.324;2022-07-03T03:24:17;4.17;;;1.57;;
9739;SDS011;4909;42.680;26.324;2022-07-03T03:26:44;3.10;;;1.30;;
9739;SDS011;4909;42.680;26.324;2022-07-03T03:29:11;3.97;;;1.57;;
9739;SDS011;4909;42.680;26.324;2022-07-03T03:31:40;4.47;;;1.57;;
9739;SDS011;4909;42.680;26.324;2022-07-03T03:34:07;4.27;;;1.60;;
9739;SDS011;4909;42.680;26.324;2022-07-03T03:36:36;5.17;;;1.73;;
9739;SDS011;4909;42.680;26.324;2022-07-03T03:39:03;4.23;;;1.53;;
9739;SDS011;4909;42.680;26.324;2022-07-03T03:41:30;6.30;;;2.17;;
9739;SDS011;4909;42.680;26.324;2022-07-03T03:43:59;4.67;;;1.73;;
9739;SDS011;4909;42.680;26.324;2022-07-03T03:46:26;3.20;;;1.33;;
9739;SDS011;4909;42.680;26.324;2022-07-03T03:48:54;3.50;;;1.50;;
9739;SDS011;4909;42.680;26.324;2022-07-03T03:51:22;3.43;;;1.50;;
9739;SDS011;4909;42.680;26.324;2022-07-03T03:53:49;4.60;;;1.63;;
9739;SDS011;4909;42.680;26.324;2022-07-03T03:56:15;2.30;;;1.20;;
9739;SDS011;4909;42.680;26.324;2022-07-03T03:58:42;3.17;;;1.30;;
9739;SDS011;4909;42.680;26.324;2022-07-03T04:01:10;3.40;;;1.40;;
9739;SDS011;4909;42.680;26.324;2022-07-03T04:03:38;5.80;;;1.97;;
9739;SDS011;4909;42.680;26.324;2022-07-03T04:06:07;3.53;;;1.57;;
9739;SDS011;4909;42.680;26.324;2022-07-03T04:08:34;2.77;;;1.33;;
9739;SDS011;4909;42.680;26.324;2022-07-03T04:11:01;4.03;;;1.50;;
9739;SDS011;4909;42.680;26.324;2022-07-03T04:13:27;4.53;;;1.73;;
9739;SDS011;4909;42.680;26.324;2022-07-03T04:15:55;5.23;;;1.87;;
9739;SDS011;4909;42.680;26.324;2022-07-03T04:18:22;4.47;;;1.63;;
9739;SDS011;4909;42.680;26.324;2022-07-03T04:20:49;2.83;;;1.43;;
9739;SDS011;4909;42.680;26.324;2022-07-03T04:23:18;3.90;;;1.63;;
9739;SDS011;4909;42.680;26.324;2022-07-03T04:25:45;4.80;;;1.83;;
9739;SDS011;4909;42.680;26.324;2022-07-03T04:28:12;5.47;;;2.07;;
9739;SDS011;4909;42.680;26.324;2022-07-03T04:30:39;5.87;;;2.40;;
9739;SDS011;4909;42.680;26.324;2022-07-03T04:33:06;6.30;;;2.43;;
9739;SDS011;4909;42.680;26.324;2022-07-03T04:35:33;5.77;;;2.43;;
9739;SDS011;4909;42.680;26.324;2022-07-03T04:38:00;3.17;;;1.53;;
9739;SDS011;4909;42.680;26.324;2022-07-03T04:40:28;5.17;;;2.07;;
9739;SDS011;4909;42.680;26.324;2022-07-03T04:42:55;3.90;;;1.73;;
9739;SDS011;4909;42.680;26.324;2022-07-03T04:45:22;4.03;;;1.73;;
9739;SDS011;4909;42.680;26.324;2022-07-03T04:47:49;3.10;;;1.53;;
9739;SDS011;4909;42.680;26.324;2022-07-03T04:50:16;4.77;;;1.93;;
9739;SDS011;4909;42.680;26.324;2022-07-03T04:52:43;4.47;;;1.70;;
9739;SDS011;4909;42.680;26.324;2022-07-03T04:55:10;2.83;;;1.50;;
9739;SDS011;4909;42.680;26.324;2022-07-03T04:57:38;4.57;;;1.80;;
9739;SDS011;4909;42.680;26.324;2022-07-03T05:00:06;4.87;;;1.83;;
9739;SDS011;4909;42.680;26.324;2022-07-03T05:02:33;5.10;;;1.93;;
9739;SDS011;4909;42.680;26.324;2022-07-03T05:05:00;3.77;;;1.63;;
9739;SDS011;4909;42.680;26.324;2022-07-03T05:07:28;3.73;;;1.53;;
9739;SDS011;4909;42.680;26.324;2022-07-03T05:09:55;4.33;;;1.77;;
9739;SDS011;4909;42.680;26.324;2022-07-03T05:12:22;3.53;;;1.47;;
9739;SDS011;4909;42.680;26.324;2022-07-03T05:14:50;4.10;;;1.60;;
9739;SDS011;4909;42.680;26.324;2022-07-03T05:17:17;3.77;;;1.53;;
9739;SDS011;4909;42.680;26.324;2022-07-03T05:19:44;2.90;;;1.40;;
9739;SDS011;4909;42.680;26.324;2022-07-03T05:22:11;3.40;;;1.40;;
9739;SDS011;4909;42.680;26.324;2022-07-03T05:24:38;3.97;;;1.70;;
9739;SDS011;4909;42.680;26.324;2022-07-03T05:27:05;3.27;;;1.47;;
9739;SDS011;4909;42.680;26.324;2022-07-03T05:29:32;4.53;;;1.73;;
9739;SDS011;4909;42.680;26.324;2022-07-03T05:32:00;4.83;;;1.77;;
9739;SDS011;4909;42.680;26.324;2022-07-03T05:34:27;4.00;;;1.57;;
9739;SDS011;4909;42.680;26.324;2022-07-03T05:36:54;3.40;;;1.63;;
9739;SDS011;4909;42.680;26.324;2022-07-03T05:39:22;5.23;;;2.00;;
9739;SDS011;4909;42.680;26.324;2022-07-03T05:42:03;5.20;;;1.90;;
9739;SDS011;4909;42.680;26.324;2022-07-03T05:44:30;4.33;;;1.63;;
9739;SDS011;4909;42.680;26.324;2022-07-03T05:46:57;4.00;;;1.73;;
9739;SDS011;4909;42.680;26.324;2022-07-03T05:49:25;3.30;;;1.40;;
9739;SDS011;4909;42.680;26.324;2022-07-03T05:51:52;3.67;;;1.53;;
9739;SDS011;4909;42.680;26.324;2022-07-03T05:54:20;5.53;;;1.97;;
9739;SDS011;4909;42.680;26.324;2022-07-03T05:56:46;8.87;;;2.87;;
9739;SDS011;4909;42.680;26.324;2022-07-03T05:59:13;3.73;;;1.60;;
9739;SDS011;4909;42.680;26.324;2022-07-03T06:01:40;5.80;;;2.17;;
9739;SDS011;4909;42.680;26.324;2022-07-03T06:04:07;3.63;;;1.67;;
9739;SDS011;4909;42.680;26.324;2022-07-03T06:06:35;3.43;;;1.47;;
9739;SDS011;4909;42.680;26.324;2022-07-03T06:09:03;5.37;;;2.00;;
9739;SDS011;4909;42.680;26.324;2022-07-03T06:11:30;5.50;;;2.07;;
9739;SDS011;4909;42.680;26.324;2022-07-03T06:13:57;3.70;;;1.67;;
9739;SDS011;4909;42.680;26.324;2022-07-03T06:16:23;4.53;;;2.03;;
9739;SDS011;4909;42.680;26.324;2022-07-03T06:18:50;7.80;;;2.67;;
9739;SDS011;4909;42.680;26.324;2022-07-03T06:21:18;12.33;;;3.97;;
9739;SDS011;4909;42.680;26.324;2022-07-03T06:23:46;5.57;;;2.17;;
9739;SDS011;4909;42.680;26.324;2022-07-03T06:26:13;5.00;;;2.00;;
9739;SDS011;4909;42.680;26.324;2022-07-03T06:28:40;3.07;;;1.67;;
9739;SDS011;4909;42.680;26.324;2022-07-03T06:31:07;4.50;;;1.93;;
9739;SDS011;4909;42.680;26.324;2022-07-03T06:33:34;6.13;;;2.27;;
9739;SDS011;4909;42.680;26.324;2022-07-03T06:36:01;6.93;;;2.70;;
9739;SDS011;4909;42.680;26.324;2022-07-03T06:38:28;5.70;;;2.30;;
9739;SDS011;4909;42.680;26.324;2022-07-03T06:40:56;4.13;;;1.97;;
9739;SDS011;4909;42.680;26.324;2022-07-03T06:43:23;7.83;;;2.90;;
9739;SDS011;4909;42.680;26.324;2022-07-03T06:45:50;4.87;;;1.97;;
9739;SDS011;4909;42.680;26.324;2022-07-03T06:48:17;4.17;;;1.97;;
9739;SDS011;4909;42.680;26.324;2022-07-03T06:50:45;4.37;;;2.00;;
9739;SDS011;4909;42.680;26.324;2022-07-03T06:53:12;3.10;;;1.73;;
9739;SDS011;4909;42.680;26.324;2022-07-03T06:55:39;5.33;;;2.23;;
9739;SDS011;4909;42.680;26.324;2022-07-03T06:58:07;5.10;;;2.03;;
9739;SDS011;4909;42.680;26.324;2022-07-03T07:00:34;3.93;;;1.80;;
9739;SDS011;4909;42.680;26.324;2022-07-03T07:03:03;3.07;;;1.87;;
9739;SDS011;4909;42.680;26.324;2022-07-03T07:05:30;4.10;;;2.03;;
9739;SDS011;4909;42.680;26.324;2022-07-03T07:07:57;2.97;;;1.67;;
9739;SDS011;4909;42.680;26.324;2022-07-03T07:10:24;5.30;;;2.20;;
9739;SDS011;4909;42.680;26.324;2022-07-03T07:12:51;5.23;;;2.17;;
9739;SDS011;4909;42.680;26.324;2022-07-03T07:15:19;4.37;;;2.00;;
9739;SDS011;4909;42.680;26.324;2022-07-03T07:17:46;5.03;;;2.23;;
9739;SDS011;4909;42.680;26.324;2022-07-03T07:20:13;3.93;;;2.10;;
9739;SDS011;4909;42.680;26.324;2022-07-03T07:22:40;4.77;;;2.20;;
9739;SDS011;4909;42.680;26.324;2022-07-03T07:25:07;3.33;;;2.00;;
9739;SDS011;4909;42.680;26.324;2022-07-03T07:27:34;6.77;;;2.97;;
9739;SDS011;4909;42.680;26.324;2022-07-03T07:30:02;6.40;;;2.93;;
9739;SDS011;4909;42.680;26.324;2022-07-03T07:32:31;4.40;;;2.30;;
9739;SDS011;4909;42.680;26.324;2022-07-03T07:34:58;5.40;;;2.47;;
9739;SDS011;4909;42.680;26.324;2022-07-03T07:37:25;7.43;;;2.83;;
9739;SDS011;4909;42.680;26.324;2022-07-03T07:39:52;7.90;;;3.03;;
9739;SDS011;4909;42.680;26.324;2022-07-03T07:42:19;4.73;;;2.30;;
9739;SDS011;4909;42.680;26.324;2022-07-03T07:44:46;4.77;;;2.53;;
9739;SDS011;4909;42.680;26.324;2022-07-03T07:47:12;5.53;;;2.60;;
9739;SDS011;4909;42.680;26.324;2022-07-03T07:49:41;6.20;;;2.83;;
9739;SDS011;4909;42.680;26.324;2022-07-03T07:52:08;2.70;;;1.80;;
9739;SDS011;4909;42.680;26.324;2022-07-03T07:54:35;7.93;;;3.00;;
9739;SDS011;4909;42.680;26.324;2022-07-03T07:57:02;6.23;;;2.80;;
9739;SDS011;4909;42.680;26.324;2022-07-03T07:59:29;3.90;;;1.93;;
9739;SDS011;4909;42.680;26.324;2022-07-03T08:01:55;5.10;;;2.43;;
9739;SDS011;4909;42.680;26.324;2022-07-03T08:04:41;3.70;;;1.97;;
9739;SDS011;4909;42.680;26.324;2022-07-03T08:07:25;5.37;;;2.53;;
9739;SDS011;4909;42.680;26.324;2022-07-03T08:09:52;3.87;;;2.10;;
9739;SDS011;4909;42.680;26.324;2022-07-03T08:12:19;3.83;;;2.03;;
9739;SDS011;4909;42.680;26.324;2022-07-03T08:14:46;7.03;;;2.80;;
9739;SDS011;4909;42.680;26.324;2022-07-03T08:17:13;4.30;;;2.40;;
9739;SDS011;4909;42.680;26.324;2022-07-03T08:19:41;4.93;;;2.43;;
9739;SDS011;4909;42.680;26.324;2022-07-03T08:22:08;5.50;;;2.50;;
9739;SDS011;4909;42.680;26.324;2022-07-03T08:24:35;6.27;;;2.80;;
9739;SDS011;4909;42.680;26.324;2022-07-03T08:27:03;4.50;;;2.40;;
9739;SDS011;4909;42.680;26.324;2022-07-03T08:29:30;4.73;;;2.23;;
9739;SDS011;4909;42.680;26.324;2022-07-03T08:31:57;4.53;;;2.27;;
9739;SDS011;4909;42.680;26.324;2022-07-03T08:34:24;12.40;;;4.20;;
9739;SDS011;4909;42.680;26.324;2022-07-03T08:36:53;4.87;;;2.67;;
9739;SDS011;4909;42.680;26.324;2022-07-03T08:39:20;6.27;;;2.93;;
9739;SDS011;4909;42.680;26.324;2022-07-03T08:41:46;5.30;;;2.63;;
9739;SDS011;4909;42.680;26.324;2022-07-03T08:44:16;4.70;;;2.67;;
9739;SDS011;4909;42.680;26.324;2022-07-03T08:46:44;2.33;;;1.97;;
9739;SDS011;4909;42.680;26.324;2022-07-03T08:49:13;5.90;;;2.80;;
9739;SDS011;4909;42.680;26.324;2022-07-03T08:51:41;6.20;;;3.00;;
9739;SDS011;4909;42.680;26.324;2022-07-03T08:54:09;7.63;;;3.23;;
9739;SDS011;4909;42.680;26.324;2022-07-03T08:56:36;6.77;;;3.03;;
9739;SDS011;4909;42.680;26.324;2022-07-03T08:59:05;6.80;;;3.23;;
9739;SDS011;4909;42.680;26.324;2022-07-03T09:01:32;4.77;;;2.63;;
9739;SDS011;4909;42.680;26.324;2022-07-03T09:04:04;4.97;;;2.77;;
9739;SDS011;4909;42.680;26.324;2022-07-03T09:06:31;3.03;;;2.20;;
9739;SDS011;4909;42.680;26.324;2022-07-03T09:09:00;5.73;;;3.03;;
9739;SDS011;4909;42.680;26.324;2022-07-03T09:11:30;3.30;;;2.27;;
9739;SDS011;4909;42.680;26.324;2022-07-03T09:13:57;2.90;;;2.47;;
9739;SDS011;4909;42.680;26.324;2022-07-03T09:16:24;1.73;;;1.63;;
9739;SDS011;4909;42.680;26.324;2022-07-03T09:18:51;2.50;;;1.90;;
9739;SDS011;4909;42.680;26.324;2022-07-03T09:21:18;2.43;;;2.00;;
9739;SDS011;4909;42.680;26.324;2022-07-03T09:23:45;4.63;;;2.80;;
9739;SDS011;4909;42.680;26.324;2022-07-03T09:26:13;6.07;;;3.00;;
9739;SDS011;4909;42.680;26.324;2022-07-03T09:28:44;6.20;;;3.17;;
9739;SDS011;4909;42.680;26.324;2022-07-03T09:31:13;2.53;;;2.27;;
9739;SDS011;4909;42.680;26.324;2022-07-03T09:33:52;3.57;;;2.63;;
9739;SDS011;4909;42.680;26.324;2022-07-03T09:36:21;5.03;;;3.20;;
9739;SDS011;4909;42.680;26.324;2022-07-03T09:38:49;2.90;;;2.57;;
9739;SDS011;4909;42.680;26.324;2022-07-03T09:41:16;3.30;;;2.83;;
9739;SDS011;4909;42.680;26.324;2022-07-03T09:43:44;5.13;;;3.33;;
9739;SDS011;4909;42.680;26.324;2022-07-03T09:46:11;3.43;;;2.77;;
9739;SDS011;4909;42.680;26.324;2022-07-03T09:48:38;4.03;;;3.57;;
9739;SDS011;4909;42.680;26.324;2022-07-03T09:51:13;5.27;;;3.80;;
9739;SDS011;4909;42.680;26.324;2022-07-03T09:53:52;3.70;;;3.37;;
9739;SDS011;4909;42.680;26.324;2022-07-03T09:56:22;3.80;;;3.50;;
9739;SDS011;4909;42.680;26.324;2022-07-03T09:59:02;8.37;;;5.03;;
9739;SDS011;4909;42.680;26.324;2022-07-03T10:01:31;4.93;;;4.07;;
9739;SDS011;4909;42.680;26.324;2022-07-03T10:04:08;3.87;;;3.67;;
9739;SDS011;4909;42.680;26.324;2022-07-03T10:06:46;5.37;;;3.90;;
9739;SDS011;4909;42.680;26.324;2022-07-03T10:09:18;5.70;;;3.80;;
9739;SDS011;4909;42.680;26.324;2022-07-03T10:11:45;5.47;;;3.93;;
9739;SDS011;4909;42.680;26.324;2022-07-03T10:14:14;6.63;;;3.97;;
9739;SDS011;4909;42.680;26.324;2022-07-03T10:16:42;5.43;;;3.57;;
9739;SDS011;4909;42.680;26.324;2022-07-03T10:19:11;3.43;;;3.13;;
9739;SDS011;4909;42.680;26.324;2022-07-03T10:21:41;5.60;;;3.77;;
9739;SDS011;4909;42.680;26.324;2022-07-03T10:24:10;3.37;;;3.00;;
9739;SDS011;4909;42.680;26.324;2022-07-03T10:26:39;5.67;;;4.03;;
9739;SDS011;4909;42.680;26.324;2022-07-03T10:29:08;4.40;;;3.83;;
9739;SDS011;4909;42.680;26.324;2022-07-03T10:31:42;3.77;;;3.47;;
9739;SDS011;4909;42.680;26.324;2022-07-03T10:34:12;3.43;;;3.07;;
9739;SDS011;4909;42.680;26.324;2022-07-03T10:36:41;4.63;;;3.73;;
9739;SDS011;4909;42.680;26.324;2022-07-03T10:39:13;3.20;;;3.00;;
9739;SDS011;4909;42.680;26.324;2022-07-03T10:41:47;3.57;;;3.27;;
9739;SDS011;4909;42.680;26.324;2022-07-03T10:44:48;3.20;;;2.90;;
9739;SDS011;4909;42.680;26.324;2022-07-03T10:47:39;3.13;;;2.73;;
9739;SDS011;4909;42.680;26.324;2022-07-03T10:50:09;2.83;;;2.47;;
9739;SDS011;4909;42.680;26.324;2022-07-03T10:52:37;5.67;;;3.63;;
9739;SDS011;4909;42.680;26.324;2022-07-03T10:55:05;2.73;;;2.50;;
9739;SDS011;4909;42.680;26.324;2022-07-03T10:57:33;4.43;;;3.23;;
9739;SDS011;4909;42.680;26.324;2022-07-03T11:00:03;3.73;;;2.93;;
9739;SDS011;4909;42.680;26.324;2022-07-03T11:02:34;4.23;;;3.10;;
9739;SDS011;4909;42.680;26.324;2022-07-03T11:05:25;3.80;;;2.63;;
9739;SDS011;4909;42.680;26.324;2022-07-03T11:08:09;4.30;;;2.97;;
9739;SDS011;4909;42.680;26.324;2022-07-03T11:10:39;5.03;;;3.03;;
9739;SDS011;4909;42.680;26.324;2022-07-03T11:13:08;3.50;;;2.80;;
9739;SDS011;4909;42.680;26.324;2022-07-03T11:15:38;4.40;;;2.80;;
9739;SDS011;4909;42.680;26.324;2022-07-03T11:18:07;4.00;;;3.23;;
9739;SDS011;4909;42.680;26.324;2022-07-03T11:29:39;4.37;;;3.33;;
9739;SDS011;4909;42.680;26.324;2022-07-03T11:35:06;2.63;;;2.53;;
9739;SDS011;4909;42.680;26.324;2022-07-03T11:37:33;4.13;;;2.97;;
9739;SDS011;4909;42.680;26.324;2022-07-03T11:40:02;3.37;;;2.87;;
9739;SDS011;4909;42.680;26.324;2022-07-03T11:42:33;4.33;;;3.37;;
9739;SDS011;4909;42.680;26.324;2022-07-03T11:45:00;4.87;;;3.27;;
9739;SDS011;4909;42.680;26.324;2022-07-03T11:47:28;3.80;;;3.30;;
9739;SDS011;4909;42.680;26.324;2022-07-03T11:49:55;4.70;;;3.37;;
9739;SDS011;4909;42.680;26.324;2022-07-03T11:52:31;4.90;;;3.43;;
9739;SDS011;4909;42.680;26.324;2022-07-03T11:54:58;3.50;;;3.03;;
9739;SDS011;4909;42.680;26.324;2022-07-03T11:57:27;4.27;;;2.87;;
9739;SDS011;4909;42.680;26.324;2022-07-03T11:59:54;4.40;;;2.90;;
9739;SDS011;4909;42.680;26.324;2022-07-03T12:02:30;5.00;;;2.93;;
9739;SDS011;4909;42.680;26.324;2022-07-03T12:04:57;4.50;;;3.03;;
9739;SDS011;4909;42.680;26.324;2022-07-03T12:07:24;3.80;;;2.57;;
9739;SDS011;4909;42.680;26.324;2022-07-03T12:09:51;6.10;;;3.17;;
9739;SDS011;4909;42.680;26.324;2022-07-03T12:12:18;7.47;;;3.77;;
9739;SDS011;4909;42.680;26.324;2022-07-03T12:14:54;5.03;;;2.97;;
9739;SDS011;4909;42.680;26.324;2022-07-03T12:17:22;4.97;;;3.23;;
9739;SDS011;4909;42.680;26.324;2022-07-03T12:19:51;2.83;;;2.60;;
9739;SDS011;4909;42.680;26.324;2022-07-03T12:22:22;3.47;;;2.60;;
9739;SDS011;4909;42.680;26.324;2022-07-03T12:24:55;5.47;;;3.10;;
9739;SDS011;4909;42.680;26.324;2022-07-03T12:27:23;3.83;;;2.73;;
9739;SDS011;4909;42.680;26.324;2022-07-03T12:29:52;3.67;;;2.60;;
9739;SDS011;4909;42.680;26.324;2022-07-03T12:32:19;4.30;;;3.00;;
9739;SDS011;4909;42.680;26.324;2022-07-03T12:34:47;5.33;;;3.17;;
9739;SDS011;4909;42.680;26.324;2022-07-03T12:37:14;2.53;;;2.33;;
9739;SDS011;4909;42.680;26.324;2022-07-03T12:39:41;7.43;;;3.63;;
9739;SDS011;4909;42.680;26.324;2022-07-03T12:42:16;4.77;;;3.20;;
9739;SDS011;4909;42.680;26.324;2022-07-03T12:44:55;4.23;;;3.10;;
9739;SDS011;4909;42.680;26.324;2022-07-03T12:47:23;3.73;;;3.10;;
9739;SDS011;4909;42.680;26.324;2022-07-03T12:49:57;4.40;;;3.30;;
9739;SDS011;4909;42.680;26.324;2022-07-03T12:52:25;4.90;;;3.27;;
9739;SDS011;4909;42.680;26.324;2022-07-03T12:54:53;4.90;;;2.87;;
9739;SDS011;4909;42.680;26.324;2022-07-03T12:57:21;2.50;;;2.20;;
9739;SDS011;4909;42.680;26.324;2022-07-03T13:00:08;4.73;;;2.73;;
9739;SDS011;4909;42.680;26.324;2022-07-03T13:02:37;3.50;;;2.33;;
9739;SDS011;4909;42.680;26.324;2022-07-03T13:05:15;3.23;;;2.20;;
9739;SDS011;4909;42.680;26.324;2022-07-03T13:07:43;4.50;;;2.53;;
9739;SDS011;4909;42.680;26.324;2022-07-03T13:10:12;5.80;;;2.80;;
9739;SDS011;4909;42.680;26.324;2022-07-03T13:12:49;5.23;;;3.10;;
9739;SDS011;4909;42.680;26.324;2022-07-03T13:15:19;3.60;;;2.20;;
9739;SDS011;4909;42.680;26.324;2022-07-03T13:17:50;4.47;;;2.50;;
9739;SDS011;4909;42.680;26.324;2022-07-03T13:20:22;3.63;;;2.40;;
9739;SDS011;4909;42.680;26.324;2022-07-03T13:22:50;6.50;;;3.13;;
9739;SDS011;4909;42.680;26.324;2022-07-03T13:25:18;4.90;;;2.80;;
9739;SDS011;4909;42.680;26.324;2022-07-03T13:27:45;3.30;;;2.67;;
9739;SDS011;4909;42.680;26.324;2022-07-03T13:30:12;4.30;;;2.70;;
9739;SDS011;4909;42.680;26.324;2022-07-03T13:32:41;5.07;;;2.93;;
9739;SDS011;4909;42.680;26.324;2022-07-03T13:35:09;4.73;;;2.90;;
9739;SDS011;4909;42.680;26.324;2022-07-03T13:37:36;3.67;;;2.43;;
9739;SDS011;4909;42.680;26.324;2022-07-03T13:40:04;3.93;;;2.57;;
9739;SDS011;4909;42.680;26.324;2022-07-03T13:42:31;7.20;;;3.33;;
9739;SDS011;4909;42.680;26.324;2022-07-03T13:44:58;6.33;;;3.47;;
9739;SDS011;4909;42.680;26.324;2022-07-03T13:47:25;4.07;;;2.73;;
9739;SDS011;4909;42.680;26.324;2022-07-03T13:49:54;4.03;;;2.43;;
9739;SDS011;4909;42.680;26.324;2022-07-03T13:52:20;4.63;;;2.80;;
9739;SDS011;4909;42.680;26.324;2022-07-03T13:54:47;4.37;;;2.70;;
9739;SDS011;4909;42.680;26.324;2022-07-03T13:57:14;4.30;;;2.63;;
9739;SDS011;4909;42.680;26.324;2022-07-03T13:59:41;4.33;;;3.03;;
9739;SDS011;4909;42.680;26.324;2022-07-03T14:02:08;4.97;;;2.97;;
9739;SDS011;4909;42.680;26.324;2022-07-03T14:04:36;4.80;;;3.40;;
9739;SDS011;4909;42.680;26.324;2022-07-03T14:07:04;6.50;;;3.40;;
9739;SDS011;4909;42.680;26.324;2022-07-03T14:09:31;4.50;;;3.03;;
9739;SDS011;4909;42.680;26.324;2022-07-03T14:11:58;4.40;;;3.00;;
9739;SDS011;4909;42.680;26.324;2022-07-03T14:14:25;4.40;;;2.67;;
9739;SDS011;4909;42.680;26.324;2022-07-03T14:16:52;3.10;;;2.17;;
9739;SDS011;4909;42.680;26.324;2022-07-03T14:19:19;4.50;;;2.63;;
9739;SDS011;4909;42.680;26.324;2022-07-03T14:21:46;2.93;;;2.13;;
9739;SDS011;4909;42.680;26.324;2022-07-03T14:24:15;6.80;;;3.10;;
9739;SDS011;4909;42.680;26.324;2022-07-03T14:26:42;3.47;;;2.17;;
9739;SDS011;4909;42.680;26.324;2022-07-03T14:29:26;3.47;;;2.00;;
9739;SDS011;4909;42.680;26.324;2022-07-03T14:32:10;2.00;;;1.77;;
9739;SDS011;4909;42.680;26.324;2022-07-03T14:34:56;2.97;;;1.80;;
9739;SDS011;4909;42.680;26.324;2022-07-03T14:37:23;5.10;;;2.60;;
9739;SDS011;4909;42.680;26.324;2022-07-03T14:39:52;4.73;;;2.33;;
9739;SDS011;4909;42.680;26.324;2022-07-03T14:42:19;3.53;;;2.23;;
9739;SDS011;4909;42.680;26.324;2022-07-03T14:44:46;3.73;;;2.20;;
9739;SDS011;4909;42.680;26.324;2022-07-03T14:47:12;3.07;;;1.80;;
9739;SDS011;4909;42.680;26.324;2022-07-03T14:49:40;8.03;;;3.00;;
9739;SDS011;4909;42.680;26.324;2022-07-03T14:52:07;3.00;;;1.90;;
9739;SDS011;4909;42.680;26.324;2022-07-03T14:54:34;2.80;;;1.83;;
9739;SDS011;4909;42.680;26.324;2022-07-03T14:57:06;3.50;;;1.90;;
9739;SDS011;4909;42.680;26.324;2022-07-03T14:59:45;5.67;;;2.33;;
9739;SDS011;4909;42.680;26.324;2022-07-03T15:02:22;3.43;;;1.80;;
9739;SDS011;4909;42.680;26.324;2022-07-03T15:04:55;2.63;;;1.70;;
9739;SDS011;4909;42.680;26.324;2022-07-03T15:07:30;3.80;;;1.87;;
9739;SDS011;4909;42.680;26.324;2022-07-03T15:10:03;4.30;;;2.17;;
9739;SDS011;4909;42.680;26.324;2022-07-03T15:12:34;1.97;;;1.33;;
9739;SDS011;4909;42.680;26.324;2022-07-03T15:15:04;3.80;;;1.97;;
9739;SDS011;4909;42.680;26.324;2022-07-03T15:17:35;2.53;;;1.50;;
9739;SDS011;4909;42.680;26.324;2022-07-03T15:20:03;3.47;;;1.90;;
9739;SDS011;4909;42.680;26.324;2022-07-03T15:22:31;4.80;;;2.07;;
9739;SDS011;4909;42.680;26.324;2022-07-03T15:24:58;4.00;;;1.97;;
9739;SDS011;4909;42.680;26.324;2022-07-03T15:27:25;3.97;;;1.83;;